createdAt,value
2018-12-19T00:00:36.371Z,7.20
2018-12-19T00:03:04.604Z,7.20
2018-12-19T00:05:32.815Z,7.20
2018-12-19T00:08:01.131Z,7.20
2018-12-19T00:10:29.652Z,7.20
2018-12-19T00:12:57.992Z,7.30
2018-12-19T00:15:26.230Z,7.30
2018-12-19T00:17:54.463Z,7.20
2018-12-19T00:20:22.711Z,7.20
2018-12-19T00:22:51.049Z,7.30
2018-12-19T00:25:19.332Z,7.30
2018-12-19T00:27:47.581Z,7.30
2018-12-19T00:30:16.441Z,7.30
2018-12-19T00:32:44.716Z,7.30
2018-12-19T00:35:13.181Z,7.30
2018-12-19T00:37:41.420Z,7.30
2018-12-19T00:40:09.670Z,7.20
2018-12-19T00:42:37.945Z,7.20
2018-12-19T00:45:06.281Z,7.20
2018-12-19T00:47:34.513Z,7.20
2018-12-19T00:50:03.039Z,7.20
2018-12-19T00:52:31.395Z,7.20
2018-12-19T00:54:59.615Z,7.20
2018-12-19T00:57:27.932Z,7.20
2018-12-19T00:59:56.191Z,7.30
2018-12-19T01:02:24.628Z,7.30
2018-12-19T01:04:53.437Z,7.30
2018-12-19T01:07:21.815Z,7.30
2018-12-19T01:09:50.167Z,7.30
2018-12-19T01:12:18.379Z,7.20
2018-12-19T01:14:46.608Z,7.30
2018-12-19T01:17:14.832Z,7.30
2018-12-19T01:19:43.060Z,7.30
2018-12-19T01:22:11.328Z,7.20
2018-12-19T01:24:39.564Z,7.30
2018-12-19T01:27:07.799Z,7.30
2018-12-19T01:29:36.120Z,7.30
2018-12-19T01:32:04.349Z,7.30
2018-12-19T01:34:32.578Z,7.40
2018-12-19T01:37:01.127Z,7.30
2018-12-19T01:39:29.557Z,7.30
2018-12-19T01:41:57.811Z,7.30
2018-12-19T01:44:26.219Z,7.40
2018-12-19T01:46:55.402Z,7.40
2018-12-19T01:49:24.027Z,7.40
2018-12-19T01:51:52.324Z,7.40
2018-12-19T01:54:20.671Z,7.40
2018-12-19T01:56:48.994Z,7.40
2018-12-19T01:59:17.225Z,7.40
2018-12-19T02:01:45.448Z,7.40
2018-12-19T02:04:13.722Z,7.40
2018-12-19T02:06:42.452Z,7.40
2018-12-19T02:09:10.840Z,7.40
2018-12-19T02:11:39.117Z,7.30
2018-12-19T02:14:07.374Z,7.30
2018-12-19T02:16:35.623Z,7.30
2018-12-19T02:19:03.967Z,7.30
2018-12-19T02:21:32.200Z,7.30
2018-12-19T02:24:00.504Z,7.20
2018-12-19T02:26:28.838Z,7.20
2018-12-19T02:28:57.164Z,7.20
2018-12-19T02:31:25.392Z,7.20
2018-12-19T02:33:53.865Z,7.20
2018-12-19T02:36:22.156Z,7.20
2018-12-19T02:38:50.423Z,7.20
2018-12-19T02:41:18.702Z,7.20
2018-12-19T02:43:46.945Z,7.20
2018-12-19T02:46:15.201Z,7.10
2018-12-19T02:48:44.378Z,7.10
2018-12-19T02:51:12.639Z,7.10
2018-12-19T02:53:41.048Z,7.10
2018-12-19T02:56:09.360Z,7.00
2018-12-19T02:58:38.553Z,6.90
2018-12-19T03:01:06.781Z,6.90
2018-12-19T03:03:35.072Z,6.80
2018-12-19T03:06:03.319Z,6.70
2018-12-19T03:08:31.569Z,6.70
2018-12-19T03:11:00.033Z,6.60
2018-12-19T03:13:28.871Z,6.60
2018-12-19T03:15:57.128Z,6.60
2018-12-19T03:18:25.684Z,6.60
2018-12-19T03:20:53.936Z,6.60
2018-12-19T03:23:22.173Z,6.50
2018-12-19T03:25:50.455Z,6.50
2018-12-19T03:28:20.636Z,6.50
2018-12-19T03:30:49.917Z,6.50
2018-12-19T03:33:18.196Z,6.50
2018-12-19T03:35:46.676Z,6.40
2018-12-19T03:38:16.948Z,6.50
2018-12-19T03:40:45.304Z,6.50
2018-12-19T03:43:13.548Z,6.50
2018-12-19T03:45:41.891Z,6.40
2018-12-19T03:48:12.153Z,6.40
2018-12-19T03:50:40.371Z,6.50
2018-12-19T03:53:08.624Z,6.40
2018-12-19T03:55:36.864Z,6.50
2018-12-19T03:58:05.114Z,6.50
2018-12-19T04:00:33.441Z,6.50
2018-12-19T04:03:01.991Z,6.50
2018-12-19T04:05:30.300Z,6.50
2018-12-19T04:07:58.554Z,6.50
2018-12-19T04:10:26.802Z,6.50
2018-12-19T04:12:55.085Z,6.50
2018-12-19T04:15:23.366Z,6.50
2018-12-19T04:17:51.677Z,6.50
2018-12-19T04:20:19.940Z,6.50
2018-12-19T04:22:48.215Z,6.50
2018-12-19T04:25:16.441Z,6.50
2018-12-19T04:27:44.685Z,6.50
2018-12-19T04:30:12.915Z,6.60
2018-12-19T04:32:41.267Z,6.60
2018-12-19T04:35:09.616Z,6.50
2018-12-19T04:37:37.873Z,6.50
2018-12-19T04:40:06.312Z,6.60
2018-12-19T04:42:34.693Z,6.60
2018-12-19T04:45:02.997Z,6.60
2018-12-19T04:47:31.620Z,6.60
2018-12-19T04:49:59.891Z,6.60
2018-12-19T04:52:28.166Z,6.60
2018-12-19T04:54:56.511Z,6.60
2018-12-19T04:57:24.743Z,6.50
2018-12-19T04:59:53.004Z,6.50
2018-12-19T05:02:21.262Z,6.60
2018-12-19T05:04:49.499Z,6.60
2018-12-19T05:07:19.117Z,6.50
2018-12-19T05:09:47.413Z,6.50
2018-12-19T05:12:15.726Z,6.50
2018-12-19T05:14:44.208Z,6.60
2018-12-19T05:17:12.473Z,6.60
2018-12-19T05:19:41.209Z,6.70
2018-12-19T05:22:09.455Z,6.60
2018-12-19T05:24:37.672Z,6.60
2018-12-19T05:27:05.891Z,6.60
2018-12-19T05:29:34.194Z,6.60
2018-12-19T05:32:02.487Z,6.50
2018-12-19T05:34:30.830Z,6.50
2018-12-19T05:36:59.131Z,6.50
2018-12-19T05:39:27.364Z,6.50
2018-12-19T05:41:55.723Z,6.50
2018-12-19T05:44:23.981Z,6.50
2018-12-19T05:46:52.212Z,6.40
2018-12-19T05:49:20.493Z,6.40
2018-12-19T05:51:48.824Z,6.40
2018-12-19T05:54:17.122Z,6.40
2018-12-19T05:56:45.418Z,6.40
2018-12-19T05:59:13.664Z,6.40
2018-12-19T06:01:41.915Z,6.40
2018-12-19T06:04:10.235Z,6.40
2018-12-19T06:06:38.514Z,6.40
2018-12-19T06:09:06.776Z,6.40
2018-12-19T06:11:35.088Z,6.40
2018-12-19T06:14:03.624Z,6.40
2018-12-19T06:16:32.245Z,6.40
2018-12-19T06:19:00.503Z,6.40
2018-12-19T06:21:28.847Z,6.40
2018-12-19T06:23:57.156Z,6.40
2018-12-19T06:26:25.650Z,6.50
2018-12-19T06:28:53.892Z,6.40
2018-12-19T06:31:22.179Z,6.40
2018-12-19T06:33:50.761Z,6.40
2018-12-19T06:36:19.050Z,6.40
2018-12-19T06:38:47.325Z,6.50
2018-12-19T06:41:15.593Z,6.50
2018-12-19T06:43:45.464Z,6.50
2018-12-19T06:46:13.673Z,6.50
2018-12-19T06:48:41.958Z,6.50
2018-12-19T06:51:10.249Z,6.50
2018-12-19T06:53:38.504Z,6.50
2018-12-19T06:56:06.752Z,6.50
2018-12-19T06:58:35.194Z,6.50
2018-12-19T07:01:04.042Z,6.60
2018-12-19T07:03:32.319Z,6.60
2018-12-19T07:06:00.614Z,6.60
2018-12-19T07:08:28.867Z,6.60
2018-12-19T07:10:57.072Z,6.60
2018-12-19T07:13:25.327Z,6.60
2018-12-19T07:15:53.604Z,6.60
2018-12-19T07:18:21.862Z,6.60
2018-12-19T07:20:50.129Z,6.70
2018-12-19T07:23:18.378Z,6.70
2018-12-19T07:25:46.716Z,6.70
2018-12-19T07:28:15.028Z,6.70
2018-12-19T07:30:43.276Z,6.70
2018-12-19T07:33:11.526Z,6.70
2018-12-19T07:35:39.772Z,6.70
2018-12-19T07:38:08.036Z,6.70
2018-12-19T07:40:36.300Z,6.70
2018-12-19T07:43:04.658Z,6.80
2018-12-19T07:45:32.873Z,6.80
2018-12-19T07:48:02.192Z,6.80
2018-12-19T07:50:30.434Z,6.80
2018-12-19T07:52:58.773Z,6.80
2018-12-19T07:55:28.918Z,6.90
2018-12-19T07:57:57.211Z,6.90
2018-12-19T08:00:27.574Z,6.90
2018-12-19T08:02:55.633Z,7.00
2018-12-19T08:08:16.096Z,7.10
2018-12-19T08:10:44.323Z,7.10
2018-12-19T08:13:12.578Z,7.10
2018-12-19T08:15:40.836Z,7.20
2018-12-19T08:18:09.452Z,7.30
2018-12-19T08:20:37.703Z,7.30
2018-12-19T08:23:06.068Z,7.30
2018-12-19T08:25:34.381Z,7.30
2018-12-19T08:28:02.765Z,7.40
2018-12-19T08:30:30.979Z,7.40
2018-12-19T08:32:59.523Z,7.40
2018-12-19T08:35:28.021Z,7.40
2018-12-19T08:37:56.257Z,7.40
2018-12-19T08:40:24.653Z,7.50
2018-12-19T08:42:52.839Z,7.50
2018-12-19T08:45:21.455Z,7.50
2018-12-19T08:47:49.717Z,7.50
2018-12-19T08:50:17.976Z,7.50
2018-12-19T08:52:46.202Z,7.60
2018-12-19T08:55:14.518Z,7.60
2018-12-19T08:57:42.732Z,7.70
2018-12-19T09:00:11.844Z,7.70
2018-12-19T09:02:40.099Z,7.80
2018-12-19T09:05:08.369Z,7.70
2018-12-19T09:07:36.616Z,7.70
2018-12-19T09:10:06.839Z,7.80
2018-12-19T09:12:35.137Z,7.80
2018-12-19T09:15:04.561Z,7.80
2018-12-19T09:17:32.866Z,7.80
2018-12-19T09:20:01.542Z,7.80
2018-12-19T09:22:29.852Z,7.80
2018-12-19T09:24:58.027Z,7.90
2018-12-19T09:27:26.297Z,7.90
2018-12-19T09:29:54.537Z,7.90
2018-12-19T09:32:22.767Z,7.90
2018-12-19T09:34:51.034Z,7.90
2018-12-19T09:37:19.297Z,8.00
2018-12-19T09:39:47.532Z,8.00
2018-12-19T09:42:15.912Z,8.10
2018-12-19T09:44:44.239Z,8.20
2018-12-19T09:47:12.446Z,8.30
2018-12-19T09:49:40.685Z,8.30
2018-12-19T09:52:09.067Z,8.40
2018-12-19T09:54:37.282Z,8.40
2018-12-19T09:57:05.502Z,8.50
2018-12-19T09:59:33.790Z,8.50
2018-12-19T10:02:02.038Z,8.70
2018-12-19T10:04:30.289Z,8.70
2018-12-19T10:06:58.561Z,8.90
2018-12-19T10:09:26.807Z,8.90
2018-12-19T10:11:55.287Z,9.00
2018-12-19T10:14:23.604Z,9.00
2018-12-19T10:16:51.857Z,9.00
2018-12-19T10:19:20.093Z,9.10
2018-12-19T10:21:48.489Z,9.20
2018-12-19T10:24:16.726Z,9.20
2018-12-19T10:26:44.980Z,9.20
2018-12-19T10:29:13.264Z,9.30
2018-12-19T10:31:41.507Z,9.30
2018-12-19T10:34:09.735Z,9.40
2018-12-19T10:36:38.001Z,9.40
2018-12-19T10:39:12.460Z,9.50
2018-12-19T10:41:40.711Z,9.50
2018-12-19T10:44:09.183Z,9.50
2018-12-19T10:46:38.344Z,9.60
2018-12-19T10:49:06.711Z,9.60
2018-12-19T10:51:34.947Z,9.60
2018-12-19T10:54:03.160Z,9.70
2018-12-19T10:56:31.472Z,9.70
2018-12-19T10:58:59.724Z,9.80
2018-12-19T11:01:28.023Z,9.80
2018-12-19T11:03:56.251Z,9.90
2018-12-19T11:06:24.493Z,9.90
2018-12-19T11:08:52.723Z,9.90
2018-12-19T11:11:21.066Z,10.00
2018-12-19T11:13:50.540Z,10.00
2018-12-19T11:16:18.918Z,10.00
2018-12-19T11:18:47.157Z,9.90
2018-12-19T11:21:15.432Z,9.90
2018-12-19T11:23:43.675Z,9.90
2018-12-19T11:26:12.218Z,9.90
2018-12-19T11:28:40.565Z,9.90
2018-12-19T11:31:09.013Z,10.00
2018-12-19T11:33:37.251Z,10.00
2018-12-19T11:36:05.712Z,10.00
2018-12-19T11:38:34.073Z,10.00
2018-12-19T11:41:03.415Z,10.00
2018-12-19T11:43:31.729Z,10.00
2018-12-19T11:46:00.555Z,10.00
2018-12-19T11:48:28.803Z,10.00
2018-12-19T11:50:57.040Z,9.90
2018-12-19T11:53:25.753Z,10.00
2018-12-19T11:55:54.010Z,10.00
2018-12-19T11:58:22.420Z,10.00
2018-12-19T12:00:51.022Z,10.00
2018-12-19T12:03:19.391Z,10.10
2018-12-19T12:05:47.915Z,10.10
2018-12-19T12:08:16.419Z,10.10
2018-12-19T12:10:44.785Z,10.20
2018-12-19T12:13:17.975Z,10.30
2018-12-19T12:15:46.223Z,10.30
2018-12-19T12:18:14.787Z,10.30
2018-12-19T12:20:43.032Z,10.30
2018-12-19T12:23:11.313Z,10.30
2018-12-19T12:25:39.589Z,10.40
2018-12-19T12:28:08.195Z,10.40
2018-12-19T12:30:36.431Z,10.40
2018-12-19T12:33:04.797Z,10.40
2018-12-19T12:35:33.465Z,10.40
2018-12-19T12:38:01.875Z,10.40
2018-12-19T12:40:30.227Z,10.40
2018-12-19T12:42:58.679Z,10.40
2018-12-19T12:45:27.399Z,10.30
2018-12-19T12:47:56.057Z,10.30
2018-12-19T12:50:24.339Z,10.30
2018-12-19T12:52:52.673Z,10.30
2018-12-19T12:55:21.013Z,10.30
2018-12-19T12:57:49.261Z,10.30
2018-12-19T13:00:17.528Z,10.30
2018-12-19T13:02:45.799Z,10.30
2018-12-19T13:05:14.026Z,10.30
2018-12-19T13:07:42.263Z,10.30
2018-12-19T13:10:10.647Z,10.30
2018-12-19T13:12:38.936Z,10.30
2018-12-19T13:15:07.336Z,10.20
2018-12-19T13:17:35.619Z,10.30
2018-12-19T13:20:05.827Z,10.30
2018-12-19T13:22:34.132Z,10.20
2018-12-19T13:25:02.347Z,10.20
2018-12-19T13:27:30.691Z,10.20
2018-12-19T13:29:59.072Z,10.20
2018-12-19T13:32:27.327Z,10.30
2018-12-19T13:34:55.682Z,10.20
2018-12-19T13:37:23.983Z,10.20
2018-12-19T13:39:52.230Z,10.20
2018-12-19T13:42:20.470Z,10.20
2018-12-19T13:44:49.235Z,10.20
2018-12-19T13:47:17.722Z,10.20
2018-12-19T13:49:46.408Z,10.20
2018-12-19T13:52:14.801Z,10.20
2018-12-19T13:54:43.184Z,10.10
2018-12-19T13:57:11.463Z,10.10
2018-12-19T13:59:39.977Z,10.10
2018-12-19T14:02:08.586Z,10.10
2018-12-19T14:04:37.088Z,10.10
2018-12-19T14:07:06.280Z,10.20
2018-12-19T14:09:34.783Z,10.20
2018-12-19T14:12:03.063Z,10.20
2018-12-19T14:14:31.330Z,10.10
2018-12-19T14:16:59.572Z,10.10
2018-12-19T14:19:27.879Z,10.10
2018-12-19T14:21:56.148Z,10.10
2018-12-19T14:24:24.656Z,10.10
2018-12-19T14:26:52.941Z,10.10
2018-12-19T14:29:21.191Z,10.10
2018-12-19T14:31:49.460Z,10.00
2018-12-19T14:34:17.695Z,10.00
2018-12-19T14:36:45.968Z,10.00
2018-12-19T14:39:14.208Z,10.00
2018-12-19T14:41:42.449Z,10.10
2018-12-19T14:44:10.684Z,10.00
2018-12-19T14:46:38.953Z,10.00
2018-12-19T14:49:13.792Z,10.10
2018-12-19T14:51:37.439Z,10.00
2018-12-19T14:54:05.725Z,10.10
2018-12-19T14:56:34.053Z,10.10
2018-12-19T14:59:02.863Z,10.10
2018-12-19T15:01:31.163Z,10.20
2018-12-19T15:03:59.427Z,10.20
2018-12-19T15:06:27.687Z,10.10
2018-12-19T15:08:56.894Z,10.00
2018-12-19T15:11:25.166Z,10.10
2018-12-19T15:13:54.305Z,10.00
2018-12-19T15:16:23.488Z,10.00
2018-12-19T15:18:51.752Z,10.00
2018-12-19T15:21:20.081Z,10.10
2018-12-19T15:23:48.328Z,10.00
2018-12-19T15:26:16.602Z,10.00
2018-12-19T15:28:44.869Z,10.00
2018-12-19T15:31:13.151Z,10.00
2018-12-19T15:33:41.404Z,9.90
2018-12-19T15:36:09.811Z,9.90
2018-12-19T15:38:38.313Z,9.90
2018-12-19T15:41:06.611Z,9.90
2018-12-19T15:43:34.826Z,9.90
2018-12-19T15:46:03.244Z,9.80
2018-12-19T15:48:31.454Z,9.80
2018-12-19T15:50:59.697Z,9.80
2018-12-19T15:53:28.105Z,9.80
2018-12-19T15:55:56.729Z,9.80
2018-12-19T15:58:25.084Z,9.80
2018-12-19T16:00:53.330Z,9.70
2018-12-19T16:03:21.626Z,9.70
2018-12-19T16:05:49.930Z,9.80
2018-12-19T16:08:18.173Z,9.70
2018-12-19T16:10:46.800Z,9.70
2018-12-19T16:13:15.006Z,9.70
2018-12-19T16:15:44.520Z,9.70
2018-12-19T16:18:13.139Z,9.70
2018-12-19T16:20:41.560Z,9.70
2018-12-19T16:23:10.403Z,9.60
2018-12-19T16:25:38.773Z,9.60
2018-12-19T16:28:07.178Z,9.60
2018-12-19T16:30:35.924Z,9.70
2018-12-19T16:33:04.709Z,9.70
2018-12-19T16:35:33.432Z,9.60
2018-12-19T16:38:02.370Z,9.70
2018-12-19T16:40:30.879Z,9.60
2018-12-19T16:42:59.068Z,9.60
2018-12-19T16:45:27.336Z,9.60
2018-12-19T16:47:55.803Z,9.60
2018-12-19T16:50:24.128Z,9.60
2018-12-19T16:52:52.458Z,9.70
2018-12-19T16:55:20.681Z,9.70
2018-12-19T16:57:48.892Z,9.70
2018-12-19T17:00:17.275Z,9.70
2018-12-19T17:02:45.907Z,9.70
2018-12-19T17:05:14.541Z,9.70
2018-12-19T17:07:42.731Z,9.70
2018-12-19T17:10:11.235Z,9.60
2018-12-19T17:12:39.647Z,9.70
2018-12-19T17:15:07.951Z,9.70
2018-12-19T17:17:36.330Z,9.70
2018-12-19T17:20:06.083Z,9.70
2018-12-19T17:22:34.566Z,9.60
2018-12-19T17:25:03.642Z,9.60
2018-12-19T17:27:32.188Z,9.60
2018-12-19T17:30:00.627Z,9.60
2018-12-19T17:32:29.408Z,9.50
2018-12-19T17:34:57.640Z,9.40
2018-12-19T17:37:25.924Z,9.40
2018-12-19T17:39:54.168Z,9.30
2018-12-19T17:42:22.447Z,9.30
2018-12-19T17:44:50.695Z,9.20
2018-12-19T17:47:18.966Z,9.20
2018-12-19T17:49:47.175Z,9.20
2018-12-19T17:52:15.454Z,9.20
2018-12-19T17:54:43.695Z,9.10
2018-12-19T17:57:11.931Z,9.00
2018-12-19T17:59:40.187Z,9.00
2018-12-19T18:02:08.457Z,9.00
2018-12-19T18:04:36.710Z,9.00
2018-12-19T18:07:05.023Z,9.10
2018-12-19T18:09:33.276Z,9.00
2018-12-19T18:12:01.548Z,9.10
2018-12-19T18:14:29.779Z,9.10
2018-12-19T18:16:57.995Z,9.10
2018-12-19T18:19:26.223Z,9.10
2018-12-19T18:21:54.886Z,9.10
2018-12-19T18:24:23.109Z,9.00
2018-12-19T18:26:51.340Z,9.00
2018-12-19T18:29:19.617Z,9.00
2018-12-19T18:31:47.853Z,9.00
2018-12-19T18:34:16.164Z,9.00
2018-12-19T18:36:44.373Z,9.00
2018-12-19T18:39:12.612Z,9.00
2018-12-19T18:41:40.839Z,9.00
2018-12-19T18:44:09.084Z,9.00
2018-12-19T18:46:37.375Z,8.90
2018-12-19T18:49:05.663Z,8.90
2018-12-19T18:51:33.920Z,8.90
2018-12-19T18:54:02.167Z,8.90
2018-12-19T18:56:30.493Z,8.80
2018-12-19T18:58:58.730Z,8.80
2018-12-19T19:01:26.980Z,8.80
2018-12-19T19:03:55.285Z,8.70
2018-12-19T19:06:23.566Z,8.70
2018-12-19T19:08:52.016Z,8.70
2018-12-19T19:11:20.296Z,8.60
2018-12-19T19:13:48.533Z,8.70
2018-12-19T19:16:16.792Z,8.60
2018-12-19T19:18:45.085Z,8.60
2018-12-19T19:21:13.439Z,8.70
2018-12-19T19:23:41.789Z,8.60
2018-12-19T19:26:09.966Z,8.60
2018-12-19T19:28:38.237Z,8.70
2018-12-19T19:31:06.491Z,8.60
2018-12-19T19:33:34.770Z,8.60
2018-12-19T19:36:07.482Z,8.60
2018-12-19T19:38:38.303Z,8.60
2018-12-19T19:41:06.615Z,8.50
2018-12-19T19:43:34.909Z,8.50
2018-12-19T19:46:06.580Z,8.50
2018-12-19T19:48:36.154Z,8.40
2018-12-19T19:51:05.115Z,8.40
2018-12-19T19:53:33.614Z,8.30
2018-12-19T19:56:03.006Z,8.20
2018-12-19T19:58:33.168Z,8.20
2018-12-19T20:01:02.623Z,8.10
2018-12-19T20:03:31.666Z,8.10
2018-12-19T20:06:00.217Z,8.10
2018-12-19T20:08:28.513Z,8.10
2018-12-19T20:10:57.025Z,8.00
2018-12-19T20:13:33.089Z,8.00
2018-12-19T20:15:56.990Z,8.00
2018-12-19T20:18:25.426Z,7.90
2018-12-19T20:20:55.121Z,7.90
2018-12-19T20:23:23.644Z,7.90
2018-12-19T20:25:54.706Z,7.80
2018-12-19T20:28:24.136Z,7.70
2018-12-19T20:30:52.932Z,7.60
2018-12-19T20:33:21.434Z,7.60
2018-12-19T20:35:51.057Z,7.60
2018-12-19T20:38:20.098Z,7.60
2018-12-19T20:40:49.561Z,7.60
2018-12-19T20:43:18.524Z,7.60
2018-12-19T20:45:48.055Z,7.50
2018-12-19T20:48:17.704Z,7.50
2018-12-19T20:50:47.021Z,7.50
2018-12-19T20:53:16.733Z,7.50
2018-12-19T20:55:45.215Z,7.40
2018-12-19T20:58:14.453Z,7.40
2018-12-19T21:00:44.664Z,7.50
2018-12-19T21:03:14.390Z,7.40
2018-12-19T21:05:43.234Z,7.40
2018-12-19T21:08:11.560Z,7.40
2018-12-19T21:10:39.752Z,7.30
2018-12-19T21:13:08.036Z,7.30
2018-12-19T21:15:36.260Z,7.30
2018-12-19T21:18:11.168Z,7.30
2018-12-19T21:20:39.434Z,7.30
2018-12-19T21:23:07.670Z,7.30
2018-12-19T21:25:35.940Z,7.20
2018-12-19T21:28:04.147Z,7.20
2018-12-19T21:30:32.442Z,7.30
2018-12-19T21:33:00.769Z,7.30
2018-12-19T21:35:28.996Z,7.30
2018-12-19T21:37:57.302Z,7.30
2018-12-19T21:40:25.573Z,7.20
2018-12-19T21:42:53.857Z,7.10
2018-12-19T21:45:22.177Z,7.10
2018-12-19T21:47:50.639Z,7.10
2018-12-19T21:50:18.858Z,7.00
2018-12-19T21:52:47.334Z,7.00
2018-12-19T21:55:15.734Z,7.00
2018-12-19T21:57:44.049Z,6.90
2018-12-19T22:00:16.944Z,6.90
2018-12-19T22:02:45.586Z,6.90
2018-12-19T22:05:13.909Z,6.90
2018-12-19T22:07:42.160Z,6.80
2018-12-19T22:10:10.423Z,6.90
2018-12-19T22:12:38.755Z,6.80
2018-12-19T22:15:07.235Z,6.70
2018-12-19T22:17:41.233Z,6.70
2018-12-19T22:20:09.559Z,6.70
2018-12-19T22:22:37.964Z,6.60
2018-12-19T22:25:06.304Z,6.70
2018-12-19T22:27:34.552Z,6.70
2018-12-19T22:30:04.190Z,6.70
2018-12-19T22:32:32.423Z,6.80
2018-12-19T22:35:00.700Z,6.70
2018-12-19T22:37:28.953Z,6.80
2018-12-19T22:39:57.302Z,6.90
2018-12-19T22:42:25.544Z,6.90
2018-12-19T22:44:53.805Z,7.00
2018-12-19T22:47:22.083Z,7.10
2018-12-19T22:49:50.296Z,7.10
2018-12-19T22:52:18.589Z,7.10
2018-12-19T22:54:46.878Z,7.10
2018-12-19T22:57:15.159Z,7.10
2018-12-19T22:59:43.539Z,7.10
2018-12-19T23:02:17.370Z,7.00
2018-12-19T23:04:45.674Z,7.00
2018-12-19T23:07:13.955Z,6.90
2018-12-19T23:09:42.217Z,6.90
2018-12-19T23:12:10.487Z,6.90
2018-12-19T23:14:38.891Z,6.80
2018-12-19T23:17:12.941Z,6.80
2018-12-19T23:19:41.172Z,6.80
2018-12-19T23:22:09.708Z,6.70
2018-12-19T23:24:38.075Z,6.70
2018-12-19T23:27:06.299Z,6.70
2018-12-19T23:29:34.724Z,6.70
2018-12-19T23:32:03.051Z,6.70
2018-12-19T23:34:31.343Z,6.70
2018-12-19T23:36:59.763Z,6.70
2018-12-19T23:39:28.099Z,6.80
2018-12-19T23:41:56.455Z,6.80
2018-12-19T23:44:30.492Z,6.90
2018-12-19T23:46:59.006Z,6.90
2018-12-19T23:49:27.298Z,6.90
2018-12-19T23:51:55.676Z,6.90
2018-12-19T23:54:29.032Z,6.90
2018-12-19T23:56:54.249Z,6.90
2018-12-19T23:59:22.629Z,6.90
